sensor_id;sensor_type;location;lat;lon;timestamp;temperature;humidity
67379;DHT22;54262;44.642;-0.974;2023-12-29T00:01:19;11.90;99.90
67379;DHT22;54262;44.642;-0.974;2023-12-29T00:03:44;11.80;99.90
67379;DHT22;54262;44.642;-0.974;2023-12-29T00:06:10;11.80;99.90
67379;DHT22;54262;44.642;-0.974;2023-12-29T00:08:36;11.70;99.90
67379;DHT22;54262;44.642;-0.974;2023-12-29T00:11:02;11.60;99.90
67379;DHT22;54262;44.642;-0.974;2023-12-29T00:13:27;11.60;99.90
67379;DHT22;54262;44.642;-0.974;2023-12-29T00:15:53;11.50;99.90
67379;DHT22;54262;44.642;-0.974;2023-12-29T00:18:19;11.40;99.90
67379;DHT22;54262;44.642;-0.974;2023-12-29T00:20:45;11.40;99.90
67379;DHT22;54262;44.642;-0.974;2023-12-29T00:23:10;11.40;99.90
67379;DHT22;54262;44.642;-0.974;2023-12-29T00:25:36;11.40;99.90
67379;DHT22;54262;44.642;-0.974;2023-12-29T00:28:02;11.30;99.90
67379;DHT22;54262;44.642;-0.974;2023-12-29T00:30:28;11.20;99.90
67379;DHT22;54262;44.642;-0.974;2023-12-29T00:32:55;11.10;99.90
67379;DHT22;54262;44.642;-0.974;2023-12-29T00:35:21;11.30;99.90
67379;DHT22;54262;44.642;-0.974;2023-12-29T00:37:46;11.30;99.90
67379;DHT22;54262;44.642;-0.974;2023-12-29T00:40:12;11.20;99.90
67379;DHT22;54262;44.642;-0.974;2023-12-29T00:42:37;11.10;99.90
67379;DHT22;54262;44.642;-0.974;2023-12-29T00:45:03;11.00;99.90
67379;DHT22;54262;44.642;-0.974;2023-12-29T00:47:29;10.90;99.90
67379;DHT22;54262;44.642;-0.974;2023-12-29T00:49:54;10.90;99.90
67379;DHT22;54262;44.642;-0.974;2023-12-29T00:52:22;10.90;99.90
67379;DHT22;54262;44.642;-0.974;2023-12-29T00:54:50;10.90;99.90
67379;DHT22;54262;44.642;-0.974;2023-12-29T00:57:16;10.90;99.90
67379;DHT22;54262;44.642;-0.974;2023-12-29T00:59:41;10.90;99.90
67379;DHT22;54262;44.642;-0.974;2023-12-29T01:02:09;10.70;99.90
67379;DHT22;54262;44.642;-0.974;2023-12-29T01:04:37;10.70;99.90
67379;DHT22;54262;44.642;-0.974;2023-12-29T01:07:02;10.70;99.90
67379;DHT22;54262;44.642;-0.974;2023-12-29T01:09:28;10.70;99.90
67379;DHT22;54262;44.642;-0.974;2023-12-29T01:11:53;10.60;99.90
67379;DHT22;54262;44.642;-0.974;2023-12-29T01:14:19;10.70;99.90
67379;DHT22;54262;44.642;-0.974;2023-12-29T01:16:45;10.90;99.90
67379;DHT22;54262;44.642;-0.974;2023-12-29T01:19:10;10.80;99.90
67379;DHT22;54262;44.642;-0.974;2023-12-29T01:21:39;10.70;99.90
67379;DHT22;54262;44.642;-0.974;2023-12-29T01:24:04;10.70;99.90
67379;DHT22;54262;44.642;-0.974;2023-12-29T01:26:31;10.60;99.90
67379;DHT22;54262;44.642;-0.974;2023-12-29T01:28:57;10.80;99.90
67379;DHT22;54262;44.642;-0.974;2023-12-29T01:31:22;10.80;99.90
67379;DHT22;54262;44.642;-0.974;2023-12-29T01:33:48;10.80;99.90
67379;DHT22;54262;44.642;-0.974;2023-12-29T01:36:17;10.90;99.90
67379;DHT22;54262;44.642;-0.974;2023-12-29T01:38:42;10.90;99.90
67379;DHT22;54262;44.642;-0.974;2023-12-29T01:41:08;10.90;99.90
67379;DHT22;54262;44.642;-0.974;2023-12-29T01:43:33;10.90;99.90
67379;DHT22;54262;44.642;-0.974;2023-12-29T01:45:59;10.90;99.90
67379;DHT22;54262;44.642;-0.974;2023-12-29T01:48:24;11.00;99.90
67379;DHT22;54262;44.642;-0.974;2023-12-29T01:50:51;11.20;99.90
67379;DHT22;54262;44.642;-0.974;2023-12-29T01:53:19;11.10;99.90
67379;DHT22;54262;44.642;-0.974;2023-12-29T01:55:47;11.10;99.90
67379;DHT22;54262;44.642;-0.974;2023-12-29T01:58:14;11.10;99.90
67379;DHT22;54262;44.642;-0.974;2023-12-29T02:00:40;11.20;99.90
67379;DHT22;54262;44.642;-0.974;2023-12-29T02:03:05;11.00;99.90
67379;DHT22;54262;44.642;-0.974;2023-12-29T02:05:31;11.10;99.90
67379;DHT22;54262;44.642;-0.974;2023-12-29T02:07:59;11.00;99.90
67379;DHT22;54262;44.642;-0.974;2023-12-29T02:10:25;11.00;99.90
67379;DHT22;54262;44.642;-0.974;2023-12-29T02:12:51;10.90;99.90
67379;DHT22;54262;44.642;-0.974;2023-12-29T02:15:19;10.90;99.90
67379;DHT22;54262;44.642;-0.974;2023-12-29T02:17:46;10.90;99.90
67379;DHT22;54262;44.642;-0.974;2023-12-29T02:20:13;10.90;99.90
67379;DHT22;54262;44.642;-0.974;2023-12-29T02:22:38;10.90;99.90
67379;DHT22;54262;44.642;-0.974;2023-12-29T02:25:05;10.90;99.90
67379;DHT22;54262;44.642;-0.974;2023-12-29T02:33:05;10.90;99.90
67379;DHT22;54262;44.642;-0.974;2023-12-29T02:35:32;10.90;99.90
67379;DHT22;54262;44.642;-0.974;2023-12-29T02:37:59;10.90;99.90
67379;DHT22;54262;44.642;-0.974;2023-12-29T02:40:25;10.90;99.90
67379;DHT22;54262;44.642;-0.974;2023-12-29T02:42:50;10.90;99.90
67379;DHT22;54262;44.642;-0.974;2023-12-29T02:45:16;10.90;99.90
67379;DHT22;54262;44.642;-0.974;2023-12-29T02:47:42;10.90;99.90
67379;DHT22;54262;44.642;-0.974;2023-12-29T02:50:08;10.90;99.90
67379;DHT22;54262;44.642;-0.974;2023-12-29T02:52:34;10.90;99.90
67379;DHT22;54262;44.642;-0.974;2023-12-29T02:55:02;10.90;99.90
67379;DHT22;54262;44.642;-0.974;2023-12-29T02:57:30;11.00;99.90
67379;DHT22;54262;44.642;-0.974;2023-12-29T02:59:55;10.90;99.90
67379;DHT22;54262;44.642;-0.974;2023-12-29T03:02:21;11.00;99.90
67379;DHT22;54262;44.642;-0.974;2023-12-29T03:04:47;10.90;99.90
67379;DHT22;54262;44.642;-0.974;2023-12-29T03:07:12;11.00;99.90
67379;DHT22;54262;44.642;-0.974;2023-12-29T03:09:38;10.90;99.90
67379;DHT22;54262;44.642;-0.974;2023-12-29T03:12:04;10.80;99.90
67379;DHT22;54262;44.642;-0.974;2023-12-29T03:14:29;10.80;99.90
67379;DHT22;54262;44.642;-0.974;2023-12-29T03:16:55;10.70;99.90
67379;DHT22;54262;44.642;-0.974;2023-12-29T03:19:20;10.70;99.90
67379;DHT22;54262;44.642;-0.974;2023-12-29T03:21:46;10.70;99.90
67379;DHT22;54262;44.642;-0.974;2023-12-29T03:24:11;10.70;99.90
67379;DHT22;54262;44.642;-0.974;2023-12-29T03:26:37;10.70;99.90
67379;DHT22;54262;44.642;-0.974;2023-12-29T03:29:02;10.70;99.90
67379;DHT22;54262;44.642;-0.974;2023-12-29T03:31:28;10.60;99.90
67379;DHT22;54262;44.642;-0.974;2023-12-29T03:33:54;10.60;99.90
67379;DHT22;54262;44.642;-0.974;2023-12-29T03:36:19;10.60;99.90
67379;DHT22;54262;44.642;-0.974;2023-12-29T03:38:45;10.70;99.90
67379;DHT22;54262;44.642;-0.974;2023-12-29T03:41:10;10.80;99.90
67379;DHT22;54262;44.642;-0.974;2023-12-29T03:43:39;10.90;99.90
67379;DHT22;54262;44.642;-0.974;2023-12-29T03:46:14;11.00;99.90
67379;DHT22;54262;44.642;-0.974;2023-12-29T03:48:40;11.00;99.90
67379;DHT22;54262;44.642;-0.974;2023-12-29T03:51:06;11.00;99.90
67379;DHT22;54262;44.642;-0.974;2023-12-29T03:53:31;11.00;99.90
67379;DHT22;54262;44.642;-0.974;2023-12-29T03:55:59;11.10;99.90
67379;DHT22;54262;44.642;-0.974;2023-12-29T03:58:31;11.00;99.90
67379;DHT22;54262;44.642;-0.974;2023-12-29T04:00:56;11.10;99.90
67379;DHT22;54262;44.642;-0.974;2023-12-29T04:03:22;11.10;99.90
67379;DHT22;54262;44.642;-0.974;2023-12-29T04:05:47;11.20;99.90
67379;DHT22;54262;44.642;-0.974;2023-12-29T04:08:13;11.10;99.90
67379;DHT22;54262;44.642;-0.974;2023-12-29T04:10:39;11.20;99.90
67379;DHT22;54262;44.642;-0.974;2023-12-29T04:13:04;11.30;99.90
67379;DHT22;54262;44.642;-0.974;2023-12-29T04:15:30;11.30;99.90
67379;DHT22;54262;44.642;-0.974;2023-12-29T04:17:55;11.40;99.90
67379;DHT22;54262;44.642;-0.974;2023-12-29T04:20:21;11.30;99.90
67379;DHT22;54262;44.642;-0.974;2023-12-29T04:22:47;11.40;99.90
67379;DHT22;54262;44.642;-0.974;2023-12-29T04:25:12;11.40;99.90
67379;DHT22;54262;44.642;-0.974;2023-12-29T04:27:39;11.40;99.90
67379;DHT22;54262;44.642;-0.974;2023-12-29T04:30:04;11.60;99.90
67379;DHT22;54262;44.642;-0.974;2023-12-29T04:32:30;11.50;99.90
67379;DHT22;54262;44.642;-0.974;2023-12-29T04:34:55;11.50;99.90
67379;DHT22;54262;44.642;-0.974;2023-12-29T04:37:21;11.60;99.90
67379;DHT22;54262;44.642;-0.974;2023-12-29T04:39:46;11.60;99.90
67379;DHT22;54262;44.642;-0.974;2023-12-29T04:42:12;11.60;99.90
67379;DHT22;54262;44.642;-0.974;2023-12-29T04:44:37;11.60;99.90
67379;DHT22;54262;44.642;-0.974;2023-12-29T04:47:03;11.70;99.90
67379;DHT22;54262;44.642;-0.974;2023-12-29T04:49:28;11.70;99.90
67379;DHT22;54262;44.642;-0.974;2023-12-29T04:51:54;11.80;99.90
67379;DHT22;54262;44.642;-0.974;2023-12-29T04:54:20;11.80;99.90
67379;DHT22;54262;44.642;-0.974;2023-12-29T04:56:47;11.90;99.90
67379;DHT22;54262;44.642;-0.974;2023-12-29T04:59:15;11.90;99.90
67379;DHT22;54262;44.642;-0.974;2023-12-29T05:01:41;12.00;99.90
67379;DHT22;54262;44.642;-0.974;2023-12-29T05:04:07;12.00;99.90
67379;DHT22;54262;44.642;-0.974;2023-12-29T05:06:32;12.00;99.90
67379;DHT22;54262;44.642;-0.974;2023-12-29T05:08:58;12.10;99.90
67379;DHT22;54262;44.642;-0.974;2023-12-29T05:11:23;12.00;99.90
67379;DHT22;54262;44.642;-0.974;2023-12-29T05:13:49;11.90;99.90
67379;DHT22;54262;44.642;-0.974;2023-12-29T05:16:15;11.90;99.90
67379;DHT22;54262;44.642;-0.974;2023-12-29T05:18:40;12.00;99.90
67379;DHT22;54262;44.642;-0.974;2023-12-29T05:21:06;12.00;99.90
67379;DHT22;54262;44.642;-0.974;2023-12-29T05:23:39;12.00;99.90
67379;DHT22;54262;44.642;-0.974;2023-12-29T05:26:04;12.00;99.90
67379;DHT22;54262;44.642;-0.974;2023-12-29T05:28:30;12.00;99.90
67379;DHT22;54262;44.642;-0.974;2023-12-29T05:30:55;12.00;99.90
67379;DHT22;54262;44.642;-0.974;2023-12-29T05:33:21;11.90;99.90
67379;DHT22;54262;44.642;-0.974;2023-12-29T05:35:46;11.90;99.90
67379;DHT22;54262;44.642;-0.974;2023-12-29T05:38:12;11.90;99.90
67379;DHT22;54262;44.642;-0.974;2023-12-29T05:40:37;11.90;99.90
67379;DHT22;54262;44.642;-0.974;2023-12-29T05:43:03;11.90;99.90
67379;DHT22;54262;44.642;-0.974;2023-12-29T05:45:29;11.80;99.90
67379;DHT22;54262;44.642;-0.974;2023-12-29T05:47:54;11.60;99.90
67379;DHT22;54262;44.642;-0.974;2023-12-29T05:50:20;11.50;99.90
67379;DHT22;54262;44.642;-0.974;2023-12-29T05:52:45;11.50;99.90
67379;DHT22;54262;44.642;-0.974;2023-12-29T05:55:15;11.50;99.90
67379;DHT22;54262;44.642;-0.974;2023-12-29T05:57:43;11.50;99.90
67379;DHT22;54262;44.642;-0.974;2023-12-29T06:00:11;11.40;99.90
67379;DHT22;54262;44.642;-0.974;2023-12-29T06:02:42;11.40;99.90
67379;DHT22;54262;44.642;-0.974;2023-12-29T06:05:11;11.30;99.90
67379;DHT22;54262;44.642;-0.974;2023-12-29T06:07:37;11.30;99.90
67379;DHT22;54262;44.642;-0.974;2023-12-29T06:10:03;11.30;99.90
67379;DHT22;54262;44.642;-0.974;2023-12-29T06:12:29;11.30;99.90
67379;DHT22;54262;44.642;-0.974;2023-12-29T06:14:54;11.30;99.90
67379;DHT22;54262;44.642;-0.974;2023-12-29T06:17:20;11.30;99.90
67379;DHT22;54262;44.642;-0.974;2023-12-29T06:19:45;11.30;99.90
67379;DHT22;54262;44.642;-0.974;2023-12-29T06:22:11;11.20;99.90
67379;DHT22;54262;44.642;-0.974;2023-12-29T06:24:42;11.20;99.90
67379;DHT22;54262;44.642;-0.974;2023-12-29T06:27:08;11.20;99.90
67379;DHT22;54262;44.642;-0.974;2023-12-29T06:29:33;11.20;99.90
67379;DHT22;54262;44.642;-0.974;2023-12-29T06:31:59;11.30;99.90
67379;DHT22;54262;44.642;-0.974;2023-12-29T06:34:24;11.30;99.90
67379;DHT22;54262;44.642;-0.974;2023-12-29T06:36:50;11.30;99.90
67379;DHT22;54262;44.642;-0.974;2023-12-29T06:39:16;11.20;99.90
67379;DHT22;54262;44.642;-0.974;2023-12-29T06:41:41;11.10;99.90
67379;DHT22;54262;44.642;-0.974;2023-12-29T06:44:07;11.20;99.90
67379;DHT22;54262;44.642;-0.974;2023-12-29T06:46:32;11.20;99.90
67379;DHT22;54262;44.642;-0.974;2023-12-29T06:48:58;11.20;99.90
67379;DHT22;54262;44.642;-0.974;2023-12-29T06:51:23;11.20;99.90
67379;DHT22;54262;44.642;-0.974;2023-12-29T06:53:49;11.20;99.90
67379;DHT22;54262;44.642;-0.974;2023-12-29T06:56:15;11.30;99.90
67379;DHT22;54262;44.642;-0.974;2023-12-29T06:58:43;11.30;99.90
67379;DHT22;54262;44.642;-0.974;2023-12-29T07:01:11;11.20;99.90
67379;DHT22;54262;44.642;-0.974;2023-12-29T07:03:36;11.30;99.90
67379;DHT22;54262;44.642;-0.974;2023-12-29T07:06:02;11.20;99.90
67379;DHT22;54262;44.642;-0.974;2023-12-29T07:08:28;11.20;99.90
67379;DHT22;54262;44.642;-0.974;2023-12-29T07:10:53;11.20;99.90
67379;DHT22;54262;44.642;-0.974;2023-12-29T07:13:19;11.20;99.90
67379;DHT22;54262;44.642;-0.974;2023-12-29T07:15:46;11.30;99.90
67379;DHT22;54262;44.642;-0.974;2023-12-29T07:18:11;11.20;99.90
67379;DHT22;54262;44.642;-0.974;2023-12-29T07:20:37;11.30;99.90
67379;DHT22;54262;44.642;-0.974;2023-12-29T07:23:03;11.30;99.90
67379;DHT22;54262;44.642;-0.974;2023-12-29T07:25:28;11.20;99.90
67379;DHT22;54262;44.642;-0.974;2023-12-29T07:27:54;11.20;99.90
67379;DHT22;54262;44.642;-0.974;2023-12-29T07:30:19;11.20;99.90
67379;DHT22;54262;44.642;-0.974;2023-12-29T07:32:45;11.20;99.90
67379;DHT22;54262;44.642;-0.974;2023-12-29T07:35:11;11.10;99.90
67379;DHT22;54262;44.642;-0.974;2023-12-29T07:37:36;11.10;99.90
67379;DHT22;54262;44.642;-0.974;2023-12-29T07:40:02;11.10;99.90
67379;DHT22;54262;44.642;-0.974;2023-12-29T07:42:29;11.10;99.90
67379;DHT22;54262;44.642;-0.974;2023-12-29T07:44:54;11.10;99.90
67379;DHT22;54262;44.642;-0.974;2023-12-29T07:47:21;11.30;99.90
67379;DHT22;54262;44.642;-0.974;2023-12-29T07:49:47;11.40;99.90
67379;DHT22;54262;44.642;-0.974;2023-12-29T07:52:12;11.30;99.90
67379;DHT22;54262;44.642;-0.974;2023-12-29T07:54:38;11.40;99.90
67379;DHT22;54262;44.642;-0.974;2023-12-29T07:57:03;11.60;99.90
67379;DHT22;54262;44.642;-0.974;2023-12-29T07:59:31;12.00;99.90
67379;DHT22;54262;44.642;-0.974;2023-12-29T08:01:59;11.90;99.90
67379;DHT22;54262;44.642;-0.974;2023-12-29T08:04:25;11.70;99.90
67379;DHT22;54262;44.642;-0.974;2023-12-29T08:06:50;11.70;99.90
67379;DHT22;54262;44.642;-0.974;2023-12-29T08:09:16;11.80;99.90
67379;DHT22;54262;44.642;-0.974;2023-12-29T08:11:41;11.80;99.90
67379;DHT22;54262;44.642;-0.974;2023-12-29T08:14:08;11.70;99.90
67379;DHT22;54262;44.642;-0.974;2023-12-29T08:16:40;11.90;99.90
67379;DHT22;54262;44.642;-0.974;2023-12-29T08:19:06;12.20;99.90
67379;DHT22;54262;44.642;-0.974;2023-12-29T08:21:32;12.00;99.90
67379;DHT22;54262;44.642;-0.974;2023-12-29T08:23:57;11.90;99.90
67379;DHT22;54262;44.642;-0.974;2023-12-29T08:26:23;11.90;99.90
67379;DHT22;54262;44.642;-0.974;2023-12-29T08:28:48;11.90;99.90
67379;DHT22;54262;44.642;-0.974;2023-12-29T08:31:14;11.90;99.90
67379;DHT22;54262;44.642;-0.974;2023-12-29T08:33:40;11.90;99.90
67379;DHT22;54262;44.642;-0.974;2023-12-29T08:36:06;11.90;99.90
67379;DHT22;54262;44.642;-0.974;2023-12-29T08:38:32;11.80;99.90
67379;DHT22;54262;44.642;-0.974;2023-12-29T08:40:57;11.90;99.90
67379;DHT22;54262;44.642;-0.974;2023-12-29T08:43:23;12.00;99.90
67379;DHT22;54262;44.642;-0.974;2023-12-29T08:45:48;12.00;99.90
67379;DHT22;54262;44.642;-0.974;2023-12-29T08:48:14;12.00;99.90
67379;DHT22;54262;44.642;-0.974;2023-12-29T08:50:40;12.00;99.90
67379;DHT22;54262;44.642;-0.974;2023-12-29T08:53:05;12.00;99.90
67379;DHT22;54262;44.642;-0.974;2023-12-29T08:55:31;12.10;99.90
67379;DHT22;54262;44.642;-0.974;2023-12-29T08:57:59;12.10;99.90
67379;DHT22;54262;44.642;-0.974;2023-12-29T09:00:26;12.20;99.90
67379;DHT22;54262;44.642;-0.974;2023-12-29T09:02:54;12.20;99.90
67379;DHT22;54262;44.642;-0.974;2023-12-29T09:05:20;12.30;99.90
67379;DHT22;54262;44.642;-0.974;2023-12-29T09:07:45;12.30;99.90
67379;DHT22;54262;44.642;-0.974;2023-12-29T09:10:11;12.30;99.90
67379;DHT22;54262;44.642;-0.974;2023-12-29T09:12:38;12.40;99.90
67379;DHT22;54262;44.642;-0.974;2023-12-29T09:15:04;12.30;99.90
67379;DHT22;54262;44.642;-0.974;2023-12-29T09:17:30;12.30;99.90
67379;DHT22;54262;44.642;-0.974;2023-12-29T09:19:55;12.30;99.90
67379;DHT22;54262;44.642;-0.974;2023-12-29T09:22:21;12.40;99.90
67379;DHT22;54262;44.642;-0.974;2023-12-29T09:24:46;12.40;99.90
67379;DHT22;54262;44.642;-0.974;2023-12-29T09:27:12;12.40;99.90
67379;DHT22;54262;44.642;-0.974;2023-12-29T09:29:39;12.50;99.90
67379;DHT22;54262;44.642;-0.974;2023-12-29T09:32:05;12.40;99.90
67379;DHT22;54262;44.642;-0.974;2023-12-29T09:34:30;12.50;99.90
67379;DHT22;54262;44.642;-0.974;2023-12-29T09:36:56;12.50;99.90
67379;DHT22;54262;44.642;-0.974;2023-12-29T09:39:22;12.60;99.90
67379;DHT22;54262;44.642;-0.974;2023-12-29T09:41:47;12.70;99.90
67379;DHT22;54262;44.642;-0.974;2023-12-29T09:44:16;12.80;99.90
67379;DHT22;54262;44.642;-0.974;2023-12-29T09:46:44;12.80;99.90
67379;DHT22;54262;44.642;-0.974;2023-12-29T09:49:11;13.00;99.90
67379;DHT22;54262;44.642;-0.974;2023-12-29T09:51:37;13.00;99.90
67379;DHT22;54262;44.642;-0.974;2023-12-29T09:54:03;13.10;99.90
67379;DHT22;54262;44.642;-0.974;2023-12-29T09:56:32;13.10;99.90
67379;DHT22;54262;44.642;-0.974;2023-12-29T09:58:57;13.10;99.90
67379;DHT22;54262;44.642;-0.974;2023-12-29T10:01:25;13.30;99.90
67379;DHT22;54262;44.642;-0.974;2023-12-29T10:03:54;13.30;99.90
67379;DHT22;54262;44.642;-0.974;2023-12-29T10:06:20;13.40;99.90
67379;DHT22;54262;44.642;-0.974;2023-12-29T10:08:49;13.50;99.90
67379;DHT22;54262;44.642;-0.974;2023-12-29T10:11:18;13.40;99.90
67379;DHT22;54262;44.642;-0.974;2023-12-29T10:13:43;13.40;99.90
67379;DHT22;54262;44.642;-0.974;2023-12-29T10:24:06;13.60;99.90
67379;DHT22;54262;44.642;-0.974;2023-12-29T10:26:34;13.70;99.90
67379;DHT22;54262;44.642;-0.974;2023-12-29T10:29:00;13.70;99.90
67379;DHT22;54262;44.642;-0.974;2023-12-29T10:31:26;13.80;99.90
67379;DHT22;54262;44.642;-0.974;2023-12-29T10:33:52;13.90;99.90
67379;DHT22;54262;44.642;-0.974;2023-12-29T10:36:17;14.00;99.90
67379;DHT22;54262;44.642;-0.974;2023-12-29T10:38:43;13.80;99.90
67379;DHT22;54262;44.642;-0.974;2023-12-29T10:41:10;13.80;99.90
67379;DHT22;54262;44.642;-0.974;2023-12-29T10:43:36;13.90;99.90
67379;DHT22;54262;44.642;-0.974;2023-12-29T10:46:08;13.90;99.90
67379;DHT22;54262;44.642;-0.974;2023-12-29T10:48:34;14.10;99.90
67379;DHT22;54262;44.642;-0.974;2023-12-29T10:51:00;14.00;99.90
67379;DHT22;54262;44.642;-0.974;2023-12-29T10:53:32;14.00;99.90
67379;DHT22;54262;44.642;-0.974;2023-12-29T10:55:58;13.90;99.90
67379;DHT22;54262;44.642;-0.974;2023-12-29T10:58:27;14.00;99.90
67379;DHT22;54262;44.642;-0.974;2023-12-29T11:00:58;14.00;99.90
67379;DHT22;54262;44.642;-0.974;2023-12-29T11:03:26;14.10;99.90
67379;DHT22;54262;44.642;-0.974;2023-12-29T11:06:00;14.10;99.90
67379;DHT22;54262;44.642;-0.974;2023-12-29T11:08:25;14.20;99.90
67379;DHT22;54262;44.642;-0.974;2023-12-29T11:10:51;14.20;99.90
67379;DHT22;54262;44.642;-0.974;2023-12-29T11:13:16;14.20;99.90
67379;DHT22;54262;44.642;-0.974;2023-12-29T11:15:45;14.20;99.90
67379;DHT22;54262;44.642;-0.974;2023-12-29T11:18:14;14.20;99.90
67379;DHT22;54262;44.642;-0.974;2023-12-29T11:20:40;14.40;99.90
67379;DHT22;54262;44.642;-0.974;2023-12-29T11:23:06;14.40;99.90
67379;DHT22;54262;44.642;-0.974;2023-12-29T11:25:33;14.50;99.90
67379;DHT22;54262;44.642;-0.974;2023-12-29T11:27:59;14.60;99.90
67379;DHT22;54262;44.642;-0.974;2023-12-29T11:30:25;14.70;99.90
67379;DHT22;54262;44.642;-0.974;2023-12-29T11:32:52;14.60;99.90
67379;DHT22;54262;44.642;-0.974;2023-12-29T11:35:20;14.80;99.90
67379;DHT22;54262;44.642;-0.974;2023-12-29T11:42:49;14.70;99.90
67379;DHT22;54262;44.642;-0.974;2023-12-29T11:45:25;14.80;99.90
67379;DHT22;54262;44.642;-0.974;2023-12-29T11:47:53;14.80;99.90
67379;DHT22;54262;44.642;-0.974;2023-12-29T11:50:31;14.80;99.90
67379;DHT22;54262;44.642;-0.974;2023-12-29T11:53:00;14.90;99.90
67379;DHT22;54262;44.642;-0.974;2023-12-29T11:55:29;15.10;99.90
67379;DHT22;54262;44.642;-0.974;2023-12-29T11:57:55;15.30;99.90
67379;DHT22;54262;44.642;-0.974;2023-12-29T12:00:39;15.40;99.90
67379;DHT22;54262;44.642;-0.974;2023-12-29T12:05:51;15.40;99.90
67379;DHT22;54262;44.642;-0.974;2023-12-29T12:08:29;15.20;99.90
67379;DHT22;54262;44.642;-0.974;2023-12-29T12:10:55;15.20;99.90
67379;DHT22;54262;44.642;-0.974;2023-12-29T12:16:05;15.20;99.90
67379;DHT22;54262;44.642;-0.974;2023-12-29T12:18:31;15.30;99.90
67379;DHT22;54262;44.642;-0.974;2023-12-29T12:20:57;15.30;99.90
67379;DHT22;54262;44.642;-0.974;2023-12-29T12:23:23;15.40;99.90
67379;DHT22;54262;44.642;-0.974;2023-12-29T12:25:49;15.50;99.90
67379;DHT22;54262;44.642;-0.974;2023-12-29T12:28:17;15.60;99.90
67379;DHT22;54262;44.642;-0.974;2023-12-29T12:30:43;15.70;99.90
67379;DHT22;54262;44.642;-0.974;2023-12-29T12:33:09;15.80;99.90
67379;DHT22;54262;44.642;-0.974;2023-12-29T12:35:36;15.90;99.90
67379;DHT22;54262;44.642;-0.974;2023-12-29T12:40:34;16.00;99.90
67379;DHT22;54262;44.642;-0.974;2023-12-29T12:43:00;15.90;99.90
67379;DHT22;54262;44.642;-0.974;2023-12-29T12:45:26;15.90;99.90
67379;DHT22;54262;44.642;-0.974;2023-12-29T12:47:54;16.00;99.90
67379;DHT22;54262;44.642;-0.974;2023-12-29T12:50:20;16.00;99.90
67379;DHT22;54262;44.642;-0.974;2023-12-29T12:52:46;16.00;99.90
67379;DHT22;54262;44.642;-0.974;2023-12-29T12:55:12;16.00;99.90
67379;DHT22;54262;44.642;-0.974;2023-12-29T12:57:38;16.00;99.90
67379;DHT22;54262;44.642;-0.974;2023-12-29T13:00:04;16.10;99.90
67379;DHT22;54262;44.642;-0.974;2023-12-29T13:02:31;16.20;99.90
67379;DHT22;54262;44.642;-0.974;2023-12-29T13:04:57;16.30;99.90
67379;DHT22;54262;44.642;-0.974;2023-12-29T13:07:25;16.30;99.90
67379;DHT22;54262;44.642;-0.974;2023-12-29T13:09:53;16.30;99.90
67379;DHT22;54262;44.642;-0.974;2023-12-29T13:12:19;16.30;99.90
67379;DHT22;54262;44.642;-0.974;2023-12-29T13:14:44;16.30;99.90
67379;DHT22;54262;44.642;-0.974;2023-12-29T13:17:13;16.30;99.90
67379;DHT22;54262;44.642;-0.974;2023-12-29T13:19:40;16.40;99.90
67379;DHT22;54262;44.642;-0.974;2023-12-29T13:22:07;16.40;99.90
67379;DHT22;54262;44.642;-0.974;2023-12-29T13:24:33;16.50;99.90
67379;DHT22;54262;44.642;-0.974;2023-12-29T13:27:17;16.50;99.90
67379;DHT22;54262;44.642;-0.974;2023-12-29T13:29:42;16.50;99.90
67379;DHT22;54262;44.642;-0.974;2023-12-29T13:32:16;16.50;99.90
67379;DHT22;54262;44.642;-0.974;2023-12-29T13:34:48;16.60;99.90
67379;DHT22;54262;44.642;-0.974;2023-12-29T13:37:17;16.50;99.90
67379;DHT22;54262;44.642;-0.974;2023-12-29T13:39:52;16.60;99.90
67379;DHT22;54262;44.642;-0.974;2023-12-29T13:42:18;16.60;99.90
67379;DHT22;54262;44.642;-0.974;2023-12-29T13:44:45;16.70;99.90
67379;DHT22;54262;44.642;-0.974;2023-12-29T13:47:11;16.60;99.90
67379;DHT22;54262;44.642;-0.974;2023-12-29T13:49:37;16.70;99.90
67379;DHT22;54262;44.642;-0.974;2023-12-29T13:52:03;16.60;99.90
67379;DHT22;54262;44.642;-0.974;2023-12-29T13:54:29;16.70;99.90
67379;DHT22;54262;44.642;-0.974;2023-12-29T13:56:55;16.80;99.90
67379;DHT22;54262;44.642;-0.974;2023-12-29T13:59:41;16.70;99.90
67379;DHT22;54262;44.642;-0.974;2023-12-29T14:05:05;16.80;99.90
67379;DHT22;54262;44.642;-0.974;2023-12-29T14:07:37;16.90;99.90
67379;DHT22;54262;44.642;-0.974;2023-12-29T14:10:11;16.90;99.90
67379;DHT22;54262;44.642;-0.974;2023-12-29T14:12:36;16.90;99.90
67379;DHT22;54262;44.642;-0.974;2023-12-29T14:15:03;17.00;99.90
67379;DHT22;54262;44.642;-0.974;2023-12-29T14:17:29;17.10;99.90
67379;DHT22;54262;44.642;-0.974;2023-12-29T14:19:54;17.10;99.90
67379;DHT22;54262;44.642;-0.974;2023-12-29T14:22:23;17.20;99.90
67379;DHT22;54262;44.642;-0.974;2023-12-29T14:25:01;17.20;99.90
67379;DHT22;54262;44.642;-0.974;2023-12-29T14:27:28;17.10;99.90
67379;DHT22;54262;44.642;-0.974;2023-12-29T14:29:53;17.10;99.90
67379;DHT22;54262;44.642;-0.974;2023-12-29T14:32:19;17.00;99.90
67379;DHT22;54262;44.642;-0.974;2023-12-29T14:34:47;17.10;99.90
67379;DHT22;54262;44.642;-0.974;2023-12-29T14:37:18;17.10;99.90
67379;DHT22;54262;44.642;-0.974;2023-12-29T14:39:50;17.00;99.90
67379;DHT22;54262;44.642;-0.974;2023-12-29T14:42:15;17.00;99.90
67379;DHT22;54262;44.642;-0.974;2023-12-29T14:44:41;16.90;99.90
67379;DHT22;54262;44.642;-0.974;2023-12-29T14:47:07;16.90;99.90
67379;DHT22;54262;44.642;-0.974;2023-12-29T14:49:32;16.90;99.90
67379;DHT22;54262;44.642;-0.974;2023-12-29T14:51:58;16.90;99.90
67379;DHT22;54262;44.642;-0.974;2023-12-29T14:54:23;16.80;99.90
67379;DHT22;54262;44.642;-0.974;2023-12-29T14:56:49;16.80;99.90
67379;DHT22;54262;44.642;-0.974;2023-12-29T14:59:15;16.80;99.90
67379;DHT22;54262;44.642;-0.974;2023-12-29T15:01:40;16.80;99.90
67379;DHT22;54262;44.642;-0.974;2023-12-29T15:04:07;16.90;99.90
67379;DHT22;54262;44.642;-0.974;2023-12-29T15:06:36;16.80;99.90
67379;DHT22;54262;44.642;-0.974;2023-12-29T15:09:04;16.80;99.90
67379;DHT22;54262;44.642;-0.974;2023-12-29T15:11:32;16.70;99.90
67379;DHT22;54262;44.642;-0.974;2023-12-29T15:13:58;16.60;99.90
67379;DHT22;54262;44.642;-0.974;2023-12-29T15:16:23;16.60;99.90
67379;DHT22;54262;44.642;-0.974;2023-12-29T15:18:49;16.70;99.90
67379;DHT22;54262;44.642;-0.974;2023-12-29T15:21:14;16.70;99.90
67379;DHT22;54262;44.642;-0.974;2023-12-29T15:23:40;16.80;99.90
67379;DHT22;54262;44.642;-0.974;2023-12-29T15:26:05;16.80;99.90
67379;DHT22;54262;44.642;-0.974;2023-12-29T15:28:31;16.70;99.90
67379;DHT22;54262;44.642;-0.974;2023-12-29T15:30:56;16.70;99.90
67379;DHT22;54262;44.642;-0.974;2023-12-29T15:33:22;16.70;99.90
67379;DHT22;54262;44.642;-0.974;2023-12-29T15:35:48;16.60;99.90
67379;DHT22;54262;44.642;-0.974;2023-12-29T15:38:14;16.60;99.90
67379;DHT22;54262;44.642;-0.974;2023-12-29T15:40:40;16.60;99.90